Time;durP1;ratioP1;P1;durP2;ratioP2;P2;SDS_P1;SDS_P2;PMS_P1;PMS_P2;Temp;Humidity;BMP_temperature;BMP_pressure;BME280_temperature;BME280_humidity;BME280_pressure;Samples;Min_cycle;Max_cycle;Signal;HPM_P1;HPM_P2
2023/05/27 03:17:38;;;;;;;9.00;4.30;;;15.80;82.90;;;;;;6196035;22;96609;-82
2023/05/27 03:20:07;;;;;;;9.38;3.97;;;15.80;83.00;;;;;;6216065;22;92049;-84
2023/05/27 03:22:32;;;;;;;11.05;4.40;;;15.80;84.00;;;;;;6216134;22;93513;-83
2023/05/27 03:24:58;;;;;;;11.48;4.50;;;15.80;83.80;;;;;;6217323;22;92845;-85
2023/05/27 03:27:24;;;;;;;7.43;3.55;;;15.80;84.30;;;;;;6214587;22;92122;-85
2023/05/27 03:29:50;;;;;;;9.20;3.65;;;15.70;84.20;;;;;;6241453;22;91325;-86
2023/05/27 03:32:16;;;;;;;8.85;4.05;;;15.80;86.30;;;;;;6246888;22;92677;-86
2023/05/27 03:34:42;;;;;;;11.15;4.00;;;15.80;84.10;;;;;;6245495;22;93348;-85
2023/05/27 03:37:07;;;;;;;8.98;3.65;;;15.70;83.90;;;;;;6246533;22;93624;-85
2023/05/27 03:39:33;;;;;;;14.00;4.07;;;15.70;83.90;;;;;;6247830;22;92433;-84
2023/05/27 03:41:59;;;;;;;7.93;3.63;;;15.70;84.90;;;;;;6244824;22;93115;-86
2023/05/27 03:44:24;;;;;;;9.60;4.32;;;15.70;85.50;;;;;;6245974;22;92708;-87
2023/05/27 03:46:50;;;;;;;11.30;3.90;;;15.70;84.30;;;;;;6246211;22;92483;-86
2023/05/27 03:49:16;;;;;;;12.15;4.50;;;15.70;84.10;;;;;;6246788;22;92795;-85
2023/05/27 03:51:42;;;;;;;9.60;4.05;;;15.70;84.20;;;;;;6244507;22;93096;-82
2023/05/27 03:54:07;;;;;;;6.80;3.65;;;15.80;84.00;;;;;;6243787;22;92745;-81
2023/05/27 03:56:33;;;;;;;9.45;3.97;;;15.80;84.50;;;;;;6245422;22;92514;-86
2023/05/27 03:58:58;;;;;;;9.38;4.13;;;15.90;83.90;;;;;;6244779;22;92353;-86
2023/05/27 04:01:24;;;;;;;10.20;4.15;;;16.00;84.70;;;;;;6243633;22;93896;-85
2023/05/27 04:03:50;;;;;;;8.63;4.10;;;16.00;83.00;;;;;;6245728;22;93136;-88
2023/05/27 04:06:16;;;;;;;9.77;4.63;;;16.20;83.20;;;;;;6248437;22;92331;-84
2023/05/27 04:08:42;;;;;;;8.73;4.60;;;16.50;81.70;;;;;;6246784;22;92655;-88
2023/05/27 04:11:12;;;;;;;7.32;3.65;;;16.70;81.30;;;;;;6218626;22;95391;-80
2023/05/27 04:13:38;;;;;;;11.85;3.72;;;16.90;80.00;;;;;;6243713;22;93087;-82
2023/05/27 04:16:04;;;;;;;11.77;3.92;;;17.20;78.80;;;;;;6248309;22;92263;-86
2023/05/27 04:18:29;;;;;;;8.70;4.10;;;17.40;78.40;;;;;;6250912;22;91162;-88
2023/05/27 04:20:55;;;;;;;9.30;4.30;;;17.80;77.00;;;;;;6247414;22;93995;-81
2023/05/27 04:23:21;;;;;;;11.82;4.22;;;18.00;75.90;;;;;;6249973;22;92564;-85
2023/05/27 04:25:48;;;;;;;13.98;3.63;;;18.20;75.40;;;;;;6249487;22;92940;-83
2023/05/27 04:28:15;;;;;;;9.07;3.67;;;18.50;74.30;;;;;;6247055;22;92384;-85
2023/05/27 04:30:41;;;;;;;12.50;3.90;;;18.80;74.10;;;;;;6242488;22;92810;-87
2023/05/27 04:33:07;;;;;;;10.35;3.10;;;19.20;72.50;;;;;;6246374;22;93029;-86
2023/05/27 04:35:33;;;;;;;9.40;3.85;;;19.50;72.50;;;;;;6246737;22;92533;-85
2023/05/27 04:38:00;;;;;;;8.95;4.30;;;20.00;69.50;;;;;;6246556;22;92348;-84
2023/05/27 04:40:28;;;;;;;8.77;3.55;;;20.30;68.10;;;;;;6247723;22;93562;-85
2023/05/27 04:42:55;;;;;;;8.13;3.72;;;20.70;67.00;;;;;;6246057;22;93329;-87
2023/05/27 04:45:20;;;;;;;12.05;3.47;;;21.10;66.00;;;;;;6243509;22;92013;-85
2023/05/27 04:47:46;;;;;;;9.00;3.53;;;21.40;65.50;;;;;;6247080;22;92442;-85
2023/05/27 04:50:13;;;;;;;10.13;3.38;;;21.80;64.50;;;;;;6246282;22;93871;-85
2023/05/27 04:52:40;;;;;;;7.00;3.33;;;22.10;63.70;;;;;;6216871;22;95666;-86
2023/05/27 04:55:07;;;;;;;8.00;3.20;;;22.40;62.40;;;;;;6244389;22;92288;-85
2023/05/27 04:57:34;;;;;;;8.68;3.92;;;22.60;61.70;;;;;;6243990;22;92339;-86
2023/05/27 05:02:34;;;;;;;7.85;3.58;;;23.40;59.90;;;;;;6244740;22;92954;-86
2023/05/27 05:05:12;;;;;;;8.95;3.47;;;23.70;58.80;;;;;;6245276;22;92599;-87
2023/05/27 05:07:41;;;;;;;9.55;3.67;;;24.30;57.70;;;;;;6238282;22;91902;-86
2023/05/27 05:10:08;;;;;;;6.30;3.40;;;24.30;56.40;;;;;;6227586;22;93065;-85
2023/05/27 05:12:33;;;;;;;8.88;3.58;;;24.50;56.80;;;;;;6247595;22;92497;-85
2023/05/27 05:14:59;;;;;;;8.88;2.95;;;24.60;56.00;;;;;;6244711;22;93217;-84
2023/05/27 05:17:25;;;;;;;11.02;4.15;;;25.00;55.80;;;;;;6240314;22;92032;-82
2023/05/27 05:19:54;;;;;;;7.07;2.95;;;25.30;55.50;;;;;;6243369;22;93635;-83
2023/05/27 05:22:22;;;;;;;9.40;3.28;;;25.90;54.30;;;;;;6249408;22;92638;-84
2023/05/27 05:24:49;;;;;;;6.65;3.30;;;26.30;53.90;;;;;;6220406;22;92415;-83
2023/05/27 05:27:15;;;;;;;10.63;3.20;;;26.70;52.90;;;;;;6248147;22;92236;-83
2023/05/27 05:29:41;;;;;;;9.70;3.30;;;27.00;51.90;;;;;;6237658;22;92960;-83
2023/05/27 05:32:08;;;;;;;10.95;4.13;;;27.00;51.00;;;;;;6248511;22;93050;-83
2023/05/27 05:34:35;;;;;;;10.10;3.45;;;27.40;51.40;;;;;;6246950;22;92262;-83
2023/05/27 05:37:01;;;;;;;8.07;3.60;;;27.90;50.80;;;;;;6245724;22;92708;-81
2023/05/27 05:39:26;;;;;;;10.98;3.75;;;27.60;50.60;;;;;;6247277;22;94545;-83
2023/05/27 05:41:52;;;;;;;6.82;4.00;;;27.80;50.10;;;;;;6248076;22;93750;-84
2023/05/27 05:44:18;;;;;;;8.90;3.42;;;28.00;49.80;;;;;;6247706;22;92034;-81
2023/05/27 05:46:44;;;;;;;10.90;4.25;;;28.60;49.20;;;;;;6238942;22;92987;-82
2023/05/27 05:49:09;;;;;;;6.80;3.88;;;28.80;49.10;;;;;;6244098;22;92587;-83
2023/05/27 05:51:35;;;;;;;8.45;3.60;;;29.00;47.60;;;;;;6239819;22;92703;-83
2023/05/27 05:54:01;;;;;;;6.70;3.88;;;29.40;47.90;;;;;;6248308;22;92204;-82
2023/05/27 05:56:27;;;;;;;7.88;4.20;;;29.20;47.50;;;;;;6244543;22;92044;-81
2023/05/27 05:58:52;;;;;;;7.18;3.85;;;29.80;46.80;;;;;;6247583;22;93206;-84
2023/05/27 06:01:18;;;;;;;10.02;4.03;;;30.30;47.00;;;;;;6244766;22;92917;-82
2023/05/27 06:03:44;;;;;;;8.13;3.80;;;30.30;46.00;;;;;;6220055;22;93369;-82
2023/05/27 06:06:10;;;;;;;8.70;3.67;;;30.40;46.00;;;;;;6249083;22;92699;-81
2023/05/27 06:08:36;;;;;;;8.27;4.70;;;30.60;45.40;;;;;;6246394;22;92669;-82
2023/05/27 06:11:01;;;;;;;9.13;4.07;;;30.20;45.40;;;;;;6247015;22;92584;-81
2023/05/27 06:13:27;;;;;;;12.93;4.22;;;30.40;46.60;;;;;;6249038;22;92072;-82
2023/05/27 06:15:55;;;;;;;9.00;4.95;;;31.10;44.80;;;;;;6247719;22;92377;-83
2023/05/27 06:18:21;;;;;;;9.18;4.47;;;31.20;43.90;;;;;;6241995;22;92694;-82
2023/05/27 06:20:47;;;;;;;8.52;4.03;;;31.40;44.10;;;;;;6249456;22;92510;-81
2023/05/27 06:23:13;;;;;;;9.13;4.22;;;31.60;43.60;;;;;;6248441;22;92211;-82
2023/05/27 06:25:38;;;;;;;7.65;3.95;;;31.40;42.70;;;;;;6247152;22;92945;-83
2023/05/27 06:28:04;;;;;;;8.55;4.40;;;31.80;43.60;;;;;;6247622;22;94120;-81
2023/05/27 06:30:32;;;;;;;10.70;4.95;;;32.10;43.40;;;;;;6247775;22;93656;-81
2023/05/27 06:32:58;;;;;;;8.95;4.60;;;32.50;43.00;;;;;;6240340;22;92626;-81
2023/05/27 06:35:24;;;;;;;7.07;4.65;;;33.10;42.60;;;;;;6249788;22;92713;-81
2023/05/27 06:37:49;;;;;;;9.75;4.75;;;33.80;41.70;;;;;;6249279;22;93846;-79
2023/05/27 06:40:15;;;;;;;10.45;5.28;;;34.00;41.70;;;;;;6246862;22;92352;-80
2023/05/27 06:42:43;;;;;;;7.28;4.65;;;34.40;40.60;;;;;;6244124;22;92810;-81
2023/05/27 06:45:09;;;;;;;10.05;6.85;;;34.20;41.40;;;;;;6249739;22;92004;-81
2023/05/27 06:47:35;;;;;;;8.93;6.18;;;35.00;39.90;;;;;;6240487;22;94165;-81
2023/05/27 06:50:00;;;;;;;10.15;5.32;;;35.20;39.50;;;;;;6248587;22;93029;-81
2023/05/27 06:52:26;;;;;;;9.35;6.72;;;35.20;39.40;;;;;;6249278;22;93195;-81
2023/05/27 06:54:52;;;;;;;7.85;5.60;;;35.30;39.40;;;;;;6250183;22;92052;-81
2023/05/27 06:57:17;;;;;;;8.35;4.40;;;35.70;39.10;;;;;;6249160;22;93255;-81
2023/05/27 06:59:43;;;;;;;8.73;4.03;;;35.80;39.00;;;;;;6249401;22;92638;-81
2023/05/27 07:02:09;;;;;;;7.75;4.78;;;36.20;38.60;;;;;;6249708;22;92280;-82
2023/05/27 07:04:35;;;;;;;9.93;5.28;;;35.80;39.50;;;;;;6245116;22;91946;-81
2023/05/27 07:07:01;;;;;;;8.75;4.55;;;36.10;39.00;;;;;;6249194;22;92359;-81
2023/05/27 07:09:27;;;;;;;7.57;5.55;;;36.50;38.80;;;;;;6249334;22;92802;-81
2023/05/27 07:11:53;;;;;;;7.35;5.57;;;36.60;37.20;;;;;;6249951;22;92329;-82
2023/05/27 07:14:18;;;;;;;7.80;5.82;;;36.90;37.10;;;;;;6250387;22;92115;-82
2023/05/27 07:16:44;;;;;;;8.15;5.03;;;37.20;37.60;;;;;;6247949;22;94024;-82
2023/05/27 07:19:10;;;;;;;7.82;6.40;;;37.40;37.20;;;;;;6244181;22;93616;-82
2023/05/27 07:21:36;;;;;;;8.07;5.22;;;37.20;37.00;;;;;;6248525;22;91962;-82
2023/05/27 07:24:05;;;;;;;8.88;4.80;;;37.40;37.00;;;;;;6222667;22;92286;-81
2023/05/27 07:26:31;;;;;;;9.18;4.50;;;37.50;36.70;;;;;;6248582;22;93674;-82
2023/05/27 07:28:59;;;;;;;10.27;5.35;;;38.00;37.20;;;;;;6249369;22;93802;-81
2023/05/27 07:31:26;;;;;;;9.20;5.75;;;37.90;36.40;;;;;;6247697;22;92248;-81
2023/05/27 07:33:52;;;;;;;8.60;6.10;;;38.00;36.40;;;;;;6249701;22;91630;-80
2023/05/27 07:36:17;;;;;;;9.48;5.95;;;38.50;35.00;;;;;;6244290;22;93160;-81
2023/05/27 07:38:43;;;;;;;9.07;5.95;;;38.80;35.70;;;;;;6249471;22;92475;-81
2023/05/27 07:41:09;;;;;;;9.10;5.65;;;39.10;35.20;;;;;;6248702;22;93375;-81
2023/05/27 07:43:35;;;;;;;9.77;5.78;;;38.70;34.40;;;;;;6249550;22;92444;-81
2023/05/27 07:46:00;;;;;;;10.35;6.15;;;38.90;34.80;;;;;;6249373;22;93099;-81
2023/05/27 07:48:27;;;;;;;7.68;5.55;;;39.10;35.20;;;;;;6248976;22;93400;-81
2023/05/27 07:50:53;;;;;;;10.25;7.60;;;39.20;35.20;;;;;;6244529;22;92476;-81
2023/05/27 07:53:19;;;;;;;11.00;7.80;;;38.90;35.20;;;;;;6250009;22;91969;-81
2023/05/27 07:55:44;;;;;;;10.32;7.05;;;39.20;34.80;;;;;;6247625;22;92763;-81
2023/05/27 07:58:10;;;;;;;9.07;6.85;;;39.40;34.60;;;;;;6249734;22;93152;-81
2023/05/27 08:00:36;;;;;;;11.35;6.28;;;39.00;34.80;;;;;;6249340;22;91976;-81
2023/05/27 08:03:01;;;;;;;10.77;5.65;;;39.20;35.10;;;;;;6250037;22;92542;-81
2023/05/27 08:05:27;;;;;;;8.55;5.50;;;38.80;34.70;;;;;;6248421;22;93727;-81
2023/05/27 08:07:52;;;;;;;9.40;6.13;;;39.10;34.60;;;;;;6242593;22;93680;-81
2023/05/27 08:10:18;;;;;;;11.07;6.47;;;39.50;34.40;;;;;;6249369;22;92074;-82
2023/05/27 08:12:44;;;;;;;10.48;6.68;;;39.30;34.40;;;;;;6249787;22;93127;-81
2023/05/27 08:15:10;;;;;;;8.80;5.85;;;39.20;34.70;;;;;;6248893;22;93044;-80
2023/05/27 08:17:35;;;;;;;11.95;6.80;;;39.70;34.90;;;;;;6248757;22;92132;-81
2023/05/27 08:20:01;;;;;;;9.68;7.25;;;40.50;34.30;;;;;;6249915;22;92540;-81
2023/05/27 08:22:27;;;;;;;8.57;6.68;;;40.60;34.10;;;;;;6243761;22;91981;-81
2023/05/27 08:24:54;;;;;;;10.45;6.68;;;40.40;33.20;;;;;;6248491;22;93677;-80
2023/05/27 08:27:21;;;;;;;10.65;6.43;;;40.90;33.30;;;;;;6249366;22;92288;-81
2023/05/27 08:29:46;;;;;;;10.95;7.05;;;41.40;32.90;;;;;;6249024;22;93519;-81
2023/05/27 08:32:12;;;;;;;9.70;6.68;;;41.00;33.10;;;;;;6248884;22;92424;-80
2023/05/27 08:34:38;;;;;;;9.82;6.90;;;40.60;33.10;;;;;;6248684;22;93534;-81
2023/05/27 08:37:05;;;;;;;9.98;6.88;;;41.10;33.20;;;;;;6244869;22;93112;-80
2023/05/27 08:39:31;;;;;;;10.77;7.10;;;40.90;34.30;;;;;;6248436;22;92405;-81
2023/05/27 08:42:00;;;;;;;10.55;8.13;;;40.90;33.70;;;;;;6248668;22;92330;-81
2023/05/27 08:44:25;;;;;;;9.65;5.63;;;41.00;32.50;;;;;;6249048;22;92738;-81
2023/05/27 08:46:51;;;;;;;7.65;6.05;;;40.60;33.40;;;;;;6249001;22;92803;-81
2023/05/27 08:49:18;;;;;;;7.03;5.93;;;41.20;34.00;;;;;;6247072;22;92307;-80
2023/05/27 08:51:45;;;;;;;12.23;7.15;;;41.30;33.30;;;;;;6249265;22;92392;-80
2023/05/27 08:54:11;;;;;;;9.63;6.10;;;41.60;33.10;;;;;;6236763;22;94303;-80
2023/05/27 08:56:39;;;;;;;8.43;7.35;;;42.00;33.50;;;;;;6245281;22;93801;-79
2023/05/27 08:59:05;;;;;;;11.18;8.65;;;42.10;33.00;;;;;;6246590;22;92041;-80
2023/05/27 09:01:32;;;;;;;13.20;7.78;;;42.30;33.50;;;;;;6243327;22;92509;-80
2023/05/27 09:03:58;;;;;;;8.10;6.47;;;42.30;32.80;;;;;;6219523;22;94079;-78
2023/05/27 09:06:24;;;;;;;13.98;8.50;;;42.60;32.80;;;;;;6238282;22;92337;-79
2023/05/27 09:08:50;;;;;;;8.73;6.53;;;42.40;32.70;;;;;;6240242;22;92982;-80
2023/05/27 09:11:25;;;;;;;7.25;5.68;;;42.90;33.20;;;;;;6243783;22;92012;-80
2023/05/27 09:13:54;;;;;;;11.55;6.80;;;43.10;32.90;;;;;;6244284;22;93302;-80
2023/05/27 09:16:21;;;;;;;10.45;7.55;;;42.80;31.90;;;;;;6242895;22;92718;-80
2023/05/27 09:18:48;;;;;;;9.18;6.95;;;43.30;31.70;;;;;;6242385;22;93455;-80
2023/05/27 09:21:13;;;;;;;10.60;7.00;;;43.20;32.60;;;;;;6244498;22;92103;-80
2023/05/27 09:23:40;;;;;;;10.63;8.15;;;43.50;32.00;;;;;;6244564;22;93256;-80
2023/05/27 09:26:10;;;;;;;11.98;6.97;;;43.70;31.80;;;;;;6236225;22;93074;-80
2023/05/27 09:28:36;;;;;;;9.43;6.82;;;43.70;31.90;;;;;;6240965;22;92676;-80
2023/05/27 09:31:04;;;;;;;15.18;7.22;;;43.50;31.70;;;;;;6245070;22;92254;-81
2023/05/27 09:33:32;;;;;;;10.65;6.70;;;43.10;32.10;;;;;;6243581;22;93600;-80
2023/05/27 09:36:03;;;;;;;11.45;10.25;;;42.70;32.50;;;;;;6242890;22;92976;-80
2023/05/27 09:38:36;;;;;;;10.35;7.30;;;42.10;32.60;;;;;;6235777;22;92568;-81
2023/05/27 09:41:02;;;;;;;8.77;6.80;;;42.00;33.00;;;;;;6236950;22;92757;-80
2023/05/27 09:43:29;;;;;;;11.95;8.32;;;42.80;33.10;;;;;;6241196;22;93995;-80
2023/05/27 09:46:02;;;;;;;13.20;6.75;;;42.90;32.40;;;;;;6244961;22;93795;-79
2023/05/27 09:48:33;;;;;;;9.38;6.78;;;43.00;31.90;;;;;;6244500;22;92362;-79
2023/05/27 09:51:03;;;;;;;10.70;6.82;;;42.90;32.50;;;;;;6244989;22;92684;-81
2023/05/27 09:53:30;;;;;;;16.30;8.70;;;42.80;31.60;;;;;;6243569;22;93014;-80
2023/05/27 09:55:57;;;;;;;12.60;7.45;;;41.90;32.70;;;;;;6210873;22;93501;-80
2023/05/27 09:58:24;;;;;;;10.00;6.75;;;41.30;33.00;;;;;;6244415;22;92407;-79
2023/05/27 10:00:50;;;;;;;10.35;6.68;;;40.70;34.10;;;;;;6243309;22;92077;-79
2023/05/27 10:03:20;;;;;;;8.27;6.25;;;39.40;34.90;;;;;;6245298;22;93068;-80
2023/05/27 10:05:48;;;;;;;13.20;5.45;;;38.10;36.40;;;;;;6243897;22;92445;-82
2023/05/27 10:08:14;;;;;;;17.92;6.18;;;37.20;37.50;;;;;;6245787;22;92956;-81
2023/05/27 10:10:40;;;;;;;11.30;6.07;;;35.90;39.20;;;;;;6246330;22;92376;-80
2023/05/27 10:13:06;;;;;;;10.52;5.63;;;34.70;39.30;;;;;;6239412;22;93102;-81
2023/05/27 10:15:33;;;;;;;12.90;5.55;;;34.00;40.70;;;;;;6245499;22;92659;-81
2023/05/27 10:18:10;;;;;;;10.40;5.32;;;32.90;41.80;;;;;;6244924;22;92614;-80
2023/05/27 10:20:42;;;;;;;10.35;5.35;;;32.20;43.70;;;;;;6218150;22;92926;-81
2023/05/27 10:23:15;;;;;;;8.30;5.00;;;31.90;44.50;;;;;;6244104;22;93720;-81
2023/05/27 10:26:05;;;;;;;12.15;5.05;;;31.60;44.90;;;;;;6245813;22;92386;-80
2023/05/27 10:28:41;;;;;;;10.43;5.50;;;31.20;46.10;;;;;;6238728;22;92356;-80
2023/05/27 10:31:30;;;;;;;11.73;5.00;;;30.50;45.50;;;;;;6242994;22;92067;-81
2023/05/27 10:33:57;;;;;;;7.70;3.90;;;30.00;46.70;;;;;;6243709;22;93860;-80
2023/05/27 10:36:26;;;;;;;11.88;6.00;;;29.80;47.10;;;;;;6244456;22;93337;-80
2023/05/27 10:39:16;;;;;;;6.63;3.67;;;29.70;47.50;;;;;;6218297;22;92109;-80
2023/05/27 10:41:48;;;;;;;9.20;5.47;;;29.60;48.10;;;;;;6230686;22;92411;-80
2023/05/27 10:44:14;;;;;;;8.68;5.70;;;29.50;46.70;;;;;;6240306;22;93223;-80
2023/05/27 10:46:41;;;;;;;9.68;4.97;;;29.50;47.20;;;;;;6244745;22;92621;-80
2023/05/27 10:49:13;;;;;;;9.73;5.35;;;29.40;47.30;;;;;;6245747;22;92503;-80
2023/05/27 10:51:39;;;;;;;10.80;5.75;;;29.50;48.60;;;;;;6246058;22;91353;-80
2023/05/27 10:54:06;;;;;;;15.98;10.13;;;29.30;48.30;;;;;;6243637;22;93185;-79
2023/05/27 10:56:32;;;;;;;12.80;5.32;;;29.10;49.20;;;;;;6244449;22;92918;-80
2023/05/27 10:59:01;;;;;;;11.48;9.18;;;29.10;48.70;;;;;;6238042;22;93721;-79
2023/05/27 11:01:31;;;;;;;9.40;5.15;;;29.10;49.70;;;;;;6237002;22;92789;-79
2023/05/27 11:03:58;;;;;;;8.93;4.90;;;29.10;49.90;;;;;;6241358;22;93191;-80
2023/05/27 11:06:24;;;;;;;8.77;4.40;;;29.20;49.20;;;;;;6238590;22;92765;-80
2023/05/27 11:08:50;;;;;;;11.18;4.28;;;29.10;49.40;;;;;;6219122;22;92091;-80
2023/05/27 11:11:16;;;;;;;10.90;4.45;;;29.00;50.00;;;;;;6247136;22;92040;-80
2023/05/27 11:13:42;;;;;;;9.20;4.00;;;29.10;49.80;;;;;;6244168;22;93264;-79
2023/05/27 11:16:08;;;;;;;5.53;3.25;;;29.10;48.80;;;;;;6243413;22;93125;-80
2023/05/27 11:18:38;;;;;;;7.43;4.07;;;29.10;50.40;;;;;;6246304;22;92374;-79
2023/05/27 11:21:05;;;;;;;8.63;4.20;;;29.20;49.70;;;;;;6246172;22;92255;-80
2023/05/27 11:23:45;;;;;;;8.10;3.90;;;29.10;49.60;;;;;;6244091;22;94002;-79
2023/05/27 11:26:22;;;;;;;11.02;4.32;;;29.00;49.20;;;;;;6245821;22;93928;-79
2023/05/27 11:28:50;;;;;;;9.75;3.90;;;29.00;49.80;;;;;;6246962;22;92417;-80
2023/05/27 11:31:17;;;;;;;7.75;4.10;;;29.00;49.30;;;;;;6237351;22;92492;-80
2023/05/27 11:33:44;;;;;;;8.65;4.10;;;29.00;48.80;;;;;;6240148;22;93173;-80
2023/05/27 11:36:14;;;;;;;7.97;4.20;;;28.80;50.10;;;;;;6240836;22;92723;-81
2023/05/27 11:38:53;;;;;;;9.05;3.85;;;28.80;51.00;;;;;;6245528;22;92385;-79
2023/05/27 11:41:20;;;;;;;8.27;3.95;;;28.70;50.50;;;;;;6248027;22;91829;-79
2023/05/27 11:43:59;;;;;;;6.95;4.20;;;28.70;50.90;;;;;;6241414;22;92701;-79
2023/05/27 11:46:40;;;;;;;7.50;3.28;;;28.70;50.70;;;;;;6236035;22;93078;-79
2023/05/27 11:49:10;;;;;;;5.05;3.13;;;28.70;50.00;;;;;;6247841;22;93214;-79
2023/05/27 11:51:37;;;;;;;7.85;3.42;;;28.60;51.40;;;;;;6248963;22;91968;-79
2023/05/27 11:54:03;;;;;;;10.10;3.55;;;28.50;49.30;;;;;;6246799;22;93228;-79
2023/05/27 11:56:29;;;;;;;5.68;3.15;;;28.60;50.80;;;;;;6248296;22;92378;-79
2023/05/27 11:58:56;;;;;;;8.07;2.88;;;28.50;50.00;;;;;;6249625;22;91987;-79
2023/05/27 12:01:22;;;;;;;7.80;3.17;;;28.60;49.70;;;;;;6245950;22;93442;-79
2023/05/27 12:03:48;;;;;;;10.23;4.10;;;28.60;47.50;;;;;;6248088;22;93112;-79
2023/05/27 12:06:14;;;;;;;8.80;3.45;;;28.60;49.40;;;;;;6247923;22;92586;-79
2023/05/27 12:08:41;;;;;;;6.60;3.67;;;28.70;49.70;;;;;;6248181;22;92467;-79
2023/05/27 12:11:07;;;;;;;6.07;3.17;;;28.60;48.90;;;;;;6247452;22;92168;-79
2023/05/27 12:13:33;;;;;;;8.18;3.70;;;28.60;50.40;;;;;;6246260;22;93568;-79
2023/05/27 12:15:59;;;;;;;8.40;3.88;;;28.60;50.70;;;;;;6246916;22;94538;-79
2023/05/27 12:18:25;;;;;;;6.45;3.03;;;28.50;50.20;;;;;;6241818;22;92380;-79
2023/05/27 12:20:51;;;;;;;10.10;3.75;;;28.60;49.70;;;;;;6249690;22;92324;-79
2023/05/27 12:23:17;;;;;;;9.20;3.60;;;28.60;50.30;;;;;;6221773;22;93982;-79
2023/05/27 12:25:43;;;;;;;5.88;2.35;;;28.70;48.10;;;;;;6218420;22;93703;-79
2023/05/27 12:28:10;;;;;;;7.47;3.45;;;28.70;50.30;;;;;;6246698;22;92884;-79
2023/05/27 12:30:36;;;;;;;7.32;2.97;;;28.60;49.30;;;;;;6249541;22;91346;-79
2023/05/27 12:33:06;;;;;;;9.00;3.10;;;28.60;49.70;;;;;;6240879;22;92680;-79
2023/05/27 12:35:33;;;;;;;8.18;2.85;;;28.60;48.80;;;;;;6248867;22;92491;-79
2023/05/27 12:37:59;;;;;;;6.75;3.13;;;28.70;50.10;;;;;;6248158;22;93828;-79
2023/05/27 12:40:25;;;;;;;6.90;3.17;;;28.80;49.30;;;;;;6248087;22;92115;-79
2023/05/27 12:42:51;;;;;;;6.72;2.72;;;28.70;48.00;;;;;;6246475;22;92528;-78
2023/05/27 12:45:17;;;;;;;9.27;3.47;;;28.60;48.80;;;;;;6244346;22;92706;-79
2023/05/27 12:47:43;;;;;;;5.55;2.63;;;28.50;49.10;;;;;;6244698;22;92071;-79
2023/05/27 12:50:09;;;;;;;9.80;2.78;;;28.50;49.00;;;;;;6242441;22;92208;-79
2023/05/27 12:52:38;;;;;;;8.27;2.80;;;28.50;50.50;;;;;;6247100;22;92443;-79
2023/05/27 12:55:04;;;;;;;6.57;2.92;;;28.60;50.10;;;;;;6247286;22;93000;-79
2023/05/27 12:57:29;;;;;;;9.55;2.45;;;28.60;50.60;;;;;;6246588;22;92398;-80
2023/05/27 12:59:55;;;;;;;4.55;2.55;;;28.50;50.90;;;;;;6244150;22;92400;-79
2023/05/27 13:02:21;;;;;;;5.65;2.88;;;28.60;50.40;;;;;;6246987;22;93587;-80
2023/05/27 13:04:47;;;;;;;7.93;2.70;;;28.60;49.10;;;;;;6240293;22;94248;-79
2023/05/27 13:07:12;;;;;;;5.60;2.45;;;28.60;49.60;;;;;;6247103;22;92780;-79
2023/05/27 13:09:40;;;;;;;5.18;2.70;;;28.60;48.90;;;;;;6248682;22;92410;-79
2023/05/27 13:12:06;;;;;;;7.30;3.38;;;28.60;48.70;;;;;;6246978;22;92693;-79
2023/05/27 13:14:31;;;;;;;6.30;2.55;;;28.50;49.20;;;;;;6246327;22;92697;-79
2023/05/27 13:16:57;;;;;;;6.07;2.75;;;28.50;48.80;;;;;;6247465;22;94702;-79
2023/05/27 13:19:23;;;;;;;7.60;3.85;;;28.50;47.70;;;;;;6245541;22;91773;-80
2023/05/27 13:21:49;;;;;;;5.75;2.90;;;28.10;46.30;;;;;;6247192;22;93396;-79
2023/05/27 13:24:15;;;;;;;5.50;3.13;;;28.00;48.40;;;;;;6247352;22;92831;-79
2023/05/27 13:26:41;;;;;;;6.70;2.90;;;28.00;46.60;;;;;;6246642;22;93247;-79
2023/05/27 13:29:07;;;;;;;9.38;2.70;;;27.90;47.20;;;;;;6242498;22;92281;-79
2023/05/27 13:31:33;;;;;;;5.57;2.45;;;27.90;46.00;;;;;;6248061;22;92766;-79
2023/05/27 13:33:58;;;;;;;7.45;2.70;;;27.70;46.50;;;;;;6245968;22;92533;-80
2023/05/27 13:36:24;;;;;;;10.65;3.40;;;27.60;45.90;;;;;;6241926;22;92103;-79
2023/05/27 13:38:50;;;;;;;4.90;2.90;;;27.70;47.20;;;;;;6247836;22;92435;-79
2023/05/27 13:41:15;;;;;;;8.93;2.80;;;27.80;47.40;;;;;;6247228;22;93259;-79
2023/05/27 13:43:41;;;;;;;11.85;3.72;;;27.90;47.00;;;;;;6219656;22;96013;-79
2023/05/27 13:46:07;;;;;;;7.55;2.55;;;27.90;47.60;;;;;;6248398;22;92327;-79
2023/05/27 13:48:32;;;;;;;6.68;2.90;;;28.00;47.40;;;;;;6248359;22;92393;-79
2023/05/27 13:50:58;;;;;;;5.75;2.78;;;27.90;45.50;;;;;;6239213;22;94105;-79
2023/05/27 13:53:24;;;;;;;9.40;3.00;;;28.00;49.70;;;;;;6243382;22;93088;-80
2023/05/27 13:55:50;;;;;;;6.93;2.80;;;28.20;49.30;;;;;;6237352;22;92462;-79
2023/05/27 13:58:16;;;;;;;6.63;3.03;;;28.30;49.20;;;;;;6246760;22;92357;-79
2023/05/27 14:00:42;;;;;;;9.75;2.80;;;28.20;48.20;;;;;;6245658;22;92965;-80
2023/05/27 14:03:08;;;;;;;5.57;2.17;;;28.20;48.00;;;;;;6238950;22;92528;-81
2023/05/27 14:05:35;;;;;;;9.00;2.65;;;28.00;48.10;;;;;;6244821;22;92668;-81
2023/05/27 14:08:03;;;;;;;6.60;2.63;;;28.00;48.40;;;;;;6236891;22;91740;-80
2023/05/27 14:10:32;;;;;;;8.52;2.67;;;28.00;49.30;;;;;;6242210;22;93198;-81
2023/05/27 14:12:58;;;;;;;8.70;2.85;;;28.00;48.60;;;;;;6241978;22;92477;-82
2023/05/27 14:15:27;;;;;;;8.05;2.60;;;27.90;46.80;;;;;;6218138;22;93471;-82
2023/05/27 14:17:54;;;;;;;8.90;2.38;;;27.90;48.10;;;;;;6247941;22;92336;-81
2023/05/27 14:20:19;;;;;;;7.47;2.47;;;27.90;47.90;;;;;;6242920;22;92111;-80
2023/05/27 14:22:45;;;;;;;7.00;2.83;;;27.70;47.00;;;;;;6231867;22;93196;-80
2023/05/27 14:25:11;;;;;;;7.88;2.10;;;27.70;49.30;;;;;;6241759;22;92567;-79
2023/05/27 14:27:37;;;;;;;7.80;2.95;;;27.70;49.20;;;;;;6238677;22;92592;-79
2023/05/27 14:30:03;;;;;;;5.57;2.63;;;27.80;49.90;;;;;;6236457;22;93610;-79
2023/05/27 14:32:29;;;;;;;9.90;2.70;;;27.80;49.30;;;;;;6236619;22;92349;-79
2023/05/27 14:34:56;;;;;;;5.85;2.42;;;27.70;48.10;;;;;;6238428;22;92298;-79
2023/05/27 14:37:22;;;;;;;9.05;2.83;;;27.70;49.10;;;;;;6238063;22;92078;-79
2023/05/27 14:39:47;;;;;;;8.10;2.60;;;27.60;49.40;;;;;;6232555;22;94500;-79
2023/05/27 14:42:13;;;;;;;14.23;3.65;;;27.60;49.00;;;;;;6235772;22;94629;-79
2023/05/27 14:44:39;;;;;;;7.43;2.72;;;27.40;48.70;;;;;;6247694;22;92596;-80
2023/05/27 14:47:05;;;;;;;7.88;2.53;;;27.40;50.80;;;;;;6246557;22;92415;-79
2023/05/27 14:49:31;;;;;;;6.68;2.42;;;27.40;48.20;;;;;;6239927;22;92958;-79
2023/05/27 14:51:57;;;;;;;10.07;2.72;;;27.40;49.10;;;;;;6242700;22;92580;-80
2023/05/27 14:54:23;;;;;;;6.47;2.78;;;27.30;47.90;;;;;;6234281;22;92774;-79
2023/05/27 14:56:49;;;;;;;7.57;2.55;;;27.20;48.10;;;;;;6241376;22;91894;-79
2023/05/27 14:59:14;;;;;;;8.88;2.67;;;27.10;49.60;;;;;;6245550;22;92837;-79
2023/05/27 15:01:40;;;;;;;7.72;3.13;;;27.10;49.20;;;;;;6241873;22;92802;-79
2023/05/27 15:04:06;;;;;;;10.00;2.65;;;27.20;50.00;;;;;;6218263;22;93587;-80
2023/05/27 15:06:31;;;;;;;8.13;2.83;;;27.20;49.30;;;;;;6241931;22;92383;-79
2023/05/27 15:08:57;;;;;;;6.05;2.92;;;27.20;49.40;;;;;;6241368;22;93044;-79
2023/05/27 15:11:23;;;;;;;7.32;2.70;;;27.20;49.30;;;;;;6245445;22;92809;-79
2023/05/27 15:13:49;;;;;;;6.30;2.78;;;27.10;49.90;;;;;;6249056;22;92264;-78
2023/05/27 15:16:15;;;;;;;6.38;2.72;;;27.10;48.50;;;;;;6246766;22;92284;-78
2023/05/27 15:18:40;;;;;;;8.00;2.22;;;27.00;50.40;;;;;;6245750;22;92981;-79
2023/05/27 15:21:06;;;;;;;5.95;2.25;;;26.90;50.50;;;;;;6248345;22;92225;-78
2023/05/27 15:23:33;;;;;;;9.38;2.53;;;27.00;50.00;;;;;;6244514;22;92486;-79
2023/05/27 15:25:58;;;;;;;11.02;3.58;;;27.10;49.90;;;;;;6243456;22;92812;-79
2023/05/27 15:28:25;;;;;;;4.68;2.20;;;27.00;48.50;;;;;;6247570;22;94073;-78
2023/05/27 15:30:51;;;;;;;6.70;2.75;;;27.00;50.60;;;;;;6246170;22;94102;-80
2023/05/27 15:33:18;;;;;;;8.57;2.70;;;27.00;48.10;;;;;;6247223;22;92039;-78
2023/05/27 15:35:43;;;;;;;6.00;2.55;;;26.80;48.40;;;;;;6249297;22;92272;-78
2023/05/27 15:38:13;;;;;;;6.75;2.97;;;26.80;49.00;;;;;;6248310;22;93504;-78
2023/05/27 15:40:42;;;;;;;8.88;3.47;;;26.80;50.40;;;;;;6243910;22;92803;-79
2023/05/27 15:43:08;;;;;;;6.68;2.35;;;26.80;47.70;;;;;;6248808;22;92060;-79
2023/05/27 15:45:38;;;;;;;7.18;2.50;;;26.70;48.90;;;;;;6249614;22;91321;-79
2023/05/27 15:48:05;;;;;;;9.10;2.90;;;26.50;48.90;;;;;;6222094;22;96707;-79
2023/05/27 15:50:31;;;;;;;5.78;2.83;;;26.50;50.50;;;;;;6248505;22;92125;-79
2023/05/27 15:52:57;;;;;;;7.45;2.15;;;26.50;50.30;;;;;;6248868;22;93122;-79
2023/05/27 15:55:22;;;;;;;9.18;2.65;;;26.30;49.50;;;;;;6250524;22;92439;-79
2023/05/27 15:57:48;;;;;;;7.32;2.47;;;26.30;50.60;;;;;;6240599;22;93025;-79
2023/05/27 16:00:14;;;;;;;14.05;3.17;;;26.20;49.80;;;;;;6248600;22;92886;-79